Time;durP1;ratioP1;P1;durP2;ratioP2;P2;SDS_P1;SDS_P2;PMS_P1;PMS_P2;Temp;Humidity;BMP_temperature;BMP_pressure;BME280_temperature;BME280_humidity;BME280_pressure;Samples;Min_cycle;Max_cycle;Signal;HPM_P1;HPM_P2
2021/01/01 00:01:26;;;;;;;;;;;;;;;21.46;30.31;100645.00;3097198;28;114578;-56
2021/01/01 00:03:00;;;;;;;;;;;;;;;21.40;30.61;100663.16;3092189;28;114805;-57
2021/01/01 00:04:31;;;;;;;;;;;;;;;21.39;30.51;100661.50;3088496;28;116491;-56
2021/01/01 00:06:02;;;;;;;;;;;;;;;21.37;30.40;100648.91;3087401;28;117038;-58
2021/01/01 00:07:38;;;;;;;;;;;;;;;21.35;30.76;100654.84;3095688;28;115190;-58
2021/01/01 00:09:09;;;;;;;;;;;;;;;21.34;30.74;100650.41;3098853;28;115305;-58
2021/01/01 00:10:41;;;;;;;;;;;;;;;21.35;30.65;100648.44;3095536;28;114102;-56
2021/01/01 00:12:12;;;;;;;;;;;;;;;21.33;30.80;100645.94;3096946;28;114159;-57
2021/01/01 00:13:44;;;;;;;;;;;;;;;21.33;30.55;100659.97;3096503;28;114148;-57
2021/01/01 00:15:15;;;;;;;;;;;;;;;21.32;30.71;100657.47;3097482;28;114174;-58
2021/01/01 00:16:46;;;;;;;;;;;;;;;21.30;30.68;100652.19;3096158;28;114494;-56
2021/01/01 00:18:18;;;;;;;;;;;;;;;21.27;30.80;100647.19;3094015;28;113702;-57
2021/01/01 00:19:49;;;;;;;;;;;;;;;21.26;30.67;100649.19;3094046;28;115290;-57
2021/01/01 00:21:27;;;;;;;;;;;;;;;21.23;30.84;100649.00;3093975;28;117044;-57
2021/01/01 00:22:58;;;;;;;;;;;;;;;21.19;30.89;100646.00;3096032;28;113910;-57
2021/01/01 00:24:30;;;;;;;;;;;;;;;21.20;30.76;100650.47;3097721;28;113934;-57
2021/01/01 00:26:01;;;;;;;;;;;;;;;21.17;30.80;100653.06;3096415;28;114360;-57
2021/01/01 00:27:32;;;;;;;;;;;;;;;21.14;31.00;100648.09;3096388;28;115440;-57
2021/01/01 00:29:06;;;;;;;;;;;;;;;21.12;30.92;100656.00;3095889;28;113897;-57
2021/01/01 00:30:38;;;;;;;;;;;;;;;21.09;31.14;100646.22;3096434;28;114459;-57
2021/01/01 00:32:10;;;;;;;;;;;;;;;21.07;31.00;100647.72;3095701;28;114139;-58
2021/01/01 00:33:41;;;;;;;;;;;;;;;21.05;30.99;100647.19;3094088;28;114340;-58
2021/01/01 00:35:13;;;;;;;;;;;;;;;21.03;31.35;100647.50;3093119;28;114174;-58
2021/01/01 00:36:44;;;;;;;;;;;;;;;21.01;31.05;100643.34;3093017;28;114837;-57
2021/01/01 00:38:16;;;;;;;;;;;;;;;20.99;31.46;100642.81;3096294;28;114252;-57
2021/01/01 00:39:48;;;;;;;;;;;;;;;20.96;31.22;100635.88;3096447;28;116092;-57
2021/01/01 00:41:29;;;;;;;;;;;;;;;20.90;31.46;100642.78;3091087;28;114208;-57
2021/01/01 00:43:01;;;;;;;;;;;;;;;20.86;31.24;100645.38;3096218;28;115038;-58
2021/01/01 00:44:33;;;;;;;;;;;;;;;20.85;31.55;100652.16;3093727;28;115392;-57
2021/01/01 00:46:05;;;;;;;;;;;;;;;20.83;31.28;100653.63;3095999;28;117230;-57
2021/01/01 00:47:36;;;;;;;;;;;;;;;20.80;31.60;100646.66;3089631;28;115032;-59
2021/01/01 00:49:07;;;;;;;;;;;;;;;20.83;31.77;100648.84;3090975;28;115396;-57
2021/01/01 00:50:39;;;;;;;;;;;;;;;20.83;31.68;100653.63;3094986;28;114034;-58
2021/01/01 00:52:10;;;;;;;;;;;;;;;20.83;31.68;100653.63;3096180;28;114525;-57
2021/01/01 00:53:41;;;;;;;;;;;;;;;20.80;31.73;100640.22;3091557;28;115875;-57
2021/01/01 00:55:13;;;;;;;;;;;;;;;20.80;31.49;100648.66;3094574;28;116740;-57
2021/01/01 00:56:44;;;;;;;;;;;;;;;20.80;31.73;100649.47;3095580;28;118370;-57
2021/01/01 00:58:15;;;;;;;;;;;;;;;20.81;31.64;100650.28;3095398;28;115920;-57
2021/01/01 00:59:46;;;;;;;;;;;;;;;20.80;31.79;100649.47;3096336;28;115992;-56
2021/01/01 01:01:24;;;;;;;;;;;;;;;20.79;31.38;100653.44;3095727;28;114881;-57
2021/01/01 01:02:56;;;;;;;;;;;;;;;20.79;31.68;100663.84;3091546;28;115175;-56
2021/01/01 01:04:27;;;;;;;;;;;;;;;20.77;31.72;100666.94;3096061;28;115892;-56
2021/01/01 01:05:58;;;;;;;;;;;;;;;20.77;31.55;100650.09;3094407;28;115941;-56
2021/01/01 01:07:29;;;;;;;;;;;;;;;20.75;31.81;100662.81;3096574;28;116083;-56
2021/01/01 01:09:00;;;;;;;;;;;;;;;20.75;31.91;100660.84;3095801;28;114925;-56
2021/01/01 01:10:31;;;;;;;;;;;;;;;20.74;31.71;100661.97;3094183;28;116109;-57
2021/01/01 01:12:03;;;;;;;;;;;;;;;20.72;31.76;100658.66;3093910;28;115991;-56
2021/01/01 01:13:34;;;;;;;;;;;;;;;20.69;31.98;100661.25;3094530;28;116712;-57
2021/01/01 01:15:06;;;;;;;;;;;;;;;20.69;31.98;100659.28;3096708;28;115347;-57
2021/01/01 01:16:37;;;;;;;;;;;;;;;20.68;31.98;100657.63;3092751;28;114590;-57
2021/01/01 01:18:09;;;;;;;;;;;;;;;20.67;32.11;100655.16;3090297;28;114729;-57
2021/01/01 01:19:41;;;;;;;;;;;;;;;20.66;32.02;100659.09;3095755;28;114413;-57
2021/01/01 01:21:12;;;;;;;;;;;;;;;20.64;31.96;100655.75;3097751;28;115209;-57
2021/01/01 01:22:43;;;;;;;;;;;;;;;20.62;31.90;100658.91;3092276;28;114080;-57
2021/01/01 01:24:14;;;;;;;;;;;;;;;20.62;31.71;100658.06;3088873;28;114276;-57
2021/01/01 01:25:46;;;;;;;;;;;;;;;20.58;32.03;100662.66;3093553;28;115688;-57
2021/01/01 01:27:17;;;;;;;;;;;;;;;20.56;32.17;100664.94;3095370;28;114368;-57
2021/01/01 01:28:48;;;;;;;;;;;;;;;20.55;32.14;100661.28;3095859;28;114555;-57
2021/01/01 01:30:20;;;;;;;;;;;;;;;20.54;31.99;100659.63;3097958;28;114176;-57
2021/01/01 01:31:51;;;;;;;;;;;;;;;20.52;32.29;100664.75;3096365;28;114153;-57
2021/01/01 01:33:23;;;;;;;;;;;;;;;20.52;32.47;100666.72;3095161;28;114262;-57
2021/01/01 01:34:54;;;;;;;;;;;;;;;20.48;32.48;100677.75;3096271;28;114444;-57
2021/01/01 01:36:25;;;;;;;;;;;;;;;20.47;32.41;100673.28;3100201;28;114178;-57
2021/01/01 01:37:57;;;;;;;;;;;;;;;20.46;32.40;100670.78;3092750;28;114026;-57
2021/01/01 01:39:28;;;;;;;;;;;;;;;20.44;32.53;100684.31;3096941;28;115417;-57
2021/01/01 01:40:59;;;;;;;;;;;;;;;20.40;32.52;100676.50;3096132;28;115511;-57
2021/01/01 01:42:33;;;;;;;;;;;;;;;20.39;32.38;100677.66;3091583;28;114130;-57
2021/01/01 01:44:05;;;;;;;;;;;;;;;20.38;32.39;100683.56;3094702;28;114590;-57
2021/01/01 01:45:36;;;;;;;;;;;;;;;20.36;32.51;100680.25;3095817;28;114742;-57
2021/01/01 01:47:14;;;;;;;;;;;;;;;20.34;32.74;100688.16;3097269;28;116024;-57
2021/01/01 01:48:45;;;;;;;;;;;;;;;20.33;32.85;100689.31;3088175;28;114776;-57
2021/01/01 01:50:17;;;;;;;;;;;;;;;20.31;32.98;100689.59;3093657;28;115629;-57
2021/01/01 01:51:49;;;;;;;;;;;;;;;20.30;33.20;100685.16;3096151;28;114532;-57
2021/01/01 01:53:21;;;;;;;;;;;;;;;20.30;32.94;100687.13;3095108;28;113988;-60
2021/01/01 01:54:54;;;;;;;;;;;;;;;20.26;33.09;100689.69;3088634;28;115150;-58
2021/01/01 01:56:25;;;;;;;;;;;;;;;20.23;33.07;100692.28;3092049;28;114255;-58
2021/01/01 01:57:57;;;;;;;;;;;;;;;20.21;33.03;100695.41;3097698;28;114187;-58
2021/01/01 01:59:28;;;;;;;;;;;;;;;20.21;33.19;100697.38;3093700;28;116180;-58
2021/01/01 02:00:59;;;;;;;;;;;;;;;20.19;33.20;100696.84;3095793;28;115571;-58
2021/01/01 02:02:31;;;;;;;;;;;;;;;20.18;33.12;100698.84;3091745;28;115251;-58
2021/01/01 02:04:02;;;;;;;;;;;;;;;20.14;32.93;100692.19;3088569;28;115825;-58
2021/01/01 02:05:35;;;;;;;;;;;;;;;20.14;33.00;100697.78;3085565;28;115944;-58
2021/01/01 02:07:07;;;;;;;;;;;;;;;20.11;33.08;100700.41;3096587;28;115793;-57
2021/01/01 02:08:39;;;;;;;;;;;;;;;20.06;33.03;100698.53;3097172;28;115057;-58
2021/01/01 02:10:11;;;;;;;;;;;;;;;20.05;33.20;100704.44;3093053;28;114610;-58
2021/01/01 02:11:42;;;;;;;;;;;;;;;20.05;33.30;100698.84;3094231;28;118380;-58
2021/01/01 02:13:14;;;;;;;;;;;;;;;20.03;32.92;100706.75;3096447;28;116291;-58
2021/01/01 02:14:45;;;;;;;;;;;;;;;20.01;32.85;100709.84;3094742;28;115535;-58
2021/01/01 02:16:17;;;;;;;;;;;;;;;19.99;33.00;100701.72;3098240;28;115175;-58
2021/01/01 02:17:49;;;;;;;;;;;;;;;19.96;32.85;100699.56;3096344;28;115193;-58
2021/01/01 02:19:22;;;;;;;;;;;;;;;19.95;33.06;100697.88;3099065;28;116438;-58
2021/01/01 02:20:53;;;;;;;;;;;;;;;19.95;32.92;100705.47;3094175;28;114264;-58
2021/01/01 02:22:24;;;;;;;;;;;;;;;19.92;33.13;100703.28;3096942;28;114810;-58
2021/01/01 02:23:56;;;;;;;;;;;;;;;19.89;33.03;100701.13;3091027;28;114793;-58
2021/01/01 02:25:27;;;;;;;;;;;;;;;19.87;33.18;100704.22;3094297;28;114172;-58
2021/01/01 02:26:59;;;;;;;;;;;;;;;19.86;32.99;100715.75;3093636;28;114173;-58
2021/01/01 02:28:34;;;;;;;;;;;;;;;19.84;33.04;100712.44;3093407;28;114632;-58
2021/01/01 02:30:06;;;;;;;;;;;;;;;19.82;32.81;100711.91;3096680;28;114091;-58
2021/01/01 02:31:38;;;;;;;;;;;;;;;19.80;32.85;100717.00;3097329;28;113895;-58
2021/01/01 02:33:09;;;;;;;;;;;;;;;19.76;32.94;100715.97;3094541;28;114571;-57
2021/01/01 02:34:42;;;;;;;;;;;;;;;19.71;33.18;100711.28;3091978;28;114799;-57
2021/01/01 02:36:13;;;;;;;;;;;;;;;19.64;32.87;100724.84;3094960;28;114351;-56
2021/01/01 02:37:45;;;;;;;;;;;;;;;19.55;32.96;100712.69;3096225;28;114852;-57
2021/01/01 02:39:17;;;;;;;;;;;;;;;19.50;33.16;100727.59;3093652;28;114558;-57
2021/01/01 02:40:48;;;;;;;;;;;;;;;19.52;32.91;100719.75;3095977;28;114233;-57
2021/01/01 02:42:20;;;;;;;;;;;;;;;19.54;33.20;100727.81;3097008;28;114027;-57
2021/01/01 02:43:51;;;;;;;;;;;;;;;19.55;33.13;100723.88;3096632;28;114767;-57
2021/01/01 02:45:22;;;;;;;;;;;;;;;19.54;33.04;100723.06;3096688;28;117897;-57
2021/01/01 02:46:58;;;;;;;;;;;;;;;19.53;33.21;100726.19;3093832;28;114283;-57
2021/01/01 02:48:30;;;;;;;;;;;;;;;19.53;33.04;100729.78;3092252;28;115106;-56
2021/01/01 02:50:01;;;;;;;;;;;;;;;19.51;33.16;100723.69;3106006;28;114428;-56
2021/01/01 02:51:32;;;;;;;;;;;;;;;19.49;33.11;100725.09;3098620;28;115970;-57
2021/01/01 02:53:04;;;;;;;;;;;;;;;19.48;33.09;100729.06;3096774;28;115324;-57
2021/01/01 02:54:35;;;;;;;;;;;;;;;19.47;33.29;100727.41;3095311;28;114265;-57
2021/01/01 02:56:06;;;;;;;;;;;;;;;19.46;33.20;100728.53;3095257;28;114141;-57
2021/01/01 02:57:38;;;;;;;;;;;;;;;19.45;33.15;100732.47;3097148;28;115296;-57
2021/01/01 02:59:09;;;;;;;;;;;;;;;19.43;33.31;100726.31;3095574;28;116213;-57
2021/01/01 03:00:41;;;;;;;;;;;;;;;19.43;33.32;100731.91;3091558;28;114074;-57
2021/01/01 03:02:12;;;;;;;;;;;;;;;19.42;33.34;100727.44;3093501;28;115426;-57
2021/01/01 03:03:43;;;;;;;;;;;;;;;19.39;33.39;100736.47;3094549;28;114437;-57
2021/01/01 03:05:15;;;;;;;;;;;;;;;19.38;33.39;100737.59;3096803;28;114705;-57
2021/01/01 03:06:46;;;;;;;;;;;;;;;19.37;33.31;100733.13;3096176;28;115103;-57
2021/01/01 03:08:17;;;;;;;;;;;;;;;19.36;33.28;100723.91;3094842;28;114623;-57
2021/01/01 03:09:48;;;;;;;;;;;;;;;19.33;33.36;100732.91;3093798;28;115989;-57
2021/01/01 03:11:20;;;;;;;;;;;;;;;19.34;33.46;100730.97;3094562;28;114907;-56
2021/01/01 03:12:51;;;;;;;;;;;;;;;19.36;33.55;100732.31;3094638;28;115001;-56
2021/01/01 03:14:22;;;;;;;;;;;;;;;19.35;33.78;100727.81;3090696;27;117179;-57
2021/01/01 03:15:53;;;;;;;;;;;;;;;19.33;33.82;100721.72;3090238;28;115830;-57
2021/01/01 03:17:25;;;;;;;;;;;;;;;19.34;33.79;100725.34;3092733;28;115833;-56
2021/01/01 03:18:56;;;;;;;;;;;;;;;19.32;33.89;100720.03;3093236;28;116702;-57
2021/01/01 03:20:27;;;;;;;;;;;;;;;19.29;33.89;100726.28;3091279;28;116545;-57
2021/01/01 03:21:58;;;;;;;;;;;;;;;19.30;34.00;100719.53;3091039;28;115470;-57
2021/01/01 03:23:30;;;;;;;;;;;;;;;19.25;34.13;100728.03;3094459;28;115835;-57
2021/01/01 03:25:01;;;;;;;;;;;;;;;19.16;34.23;100721.44;3096062;28;115263;-57
2021/01/01 03:26:32;;;;;;;;;;;;;;;19.09;34.04;100729.38;3093839;28;118508;-56
2021/01/01 03:28:03;;;;;;;;;;;;;;;19.14;33.86;100726.50;3095497;28;113737;-56
2021/01/01 03:29:35;;;;;;;;;;;;;;;19.14;33.95;100725.66;3097145;28;114014;-57
2021/01/01 03:31:07;;;;;;;;;;;;;;;19.14;33.89;100720.06;3092531;28;114599;-57
2021/01/01 03:32:39;;;;;;;;;;;;;;;19.09;33.88;100721.81;3094888;28;114390;-57
2021/01/01 03:34:10;;;;;;;;;;;;;;;19.05;33.05;100725.53;3092113;28;114261;-60
2021/01/01 03:35:41;;;;;;;;;;;;;;;18.71;29.87;100720.19;3093018;28;114291;-56
2021/01/01 03:37:12;;;;;;;;;;;;;;;18.46;30.49;100720.47;3093319;28;116707;-56
2021/01/01 03:38:43;;;;;;;;;;;;;;;18.43;32.98;100727.53;3094570;28;114211;-56
2021/01/01 03:40:14;;;;;;;;;;;;;;;18.44;33.22;100729.16;3096068;28;113958;-56
2021/01/01 03:41:46;;;;;;;;;;;;;;;18.48;33.29;100723.81;3093206;28;115646;-56
2021/01/01 03:43:17;;;;;;;;;;;;;;;18.51;33.42;100723.22;3093197;28;114154;-56
2021/01/01 03:44:48;;;;;;;;;;;;;;;18.55;33.31;100727.09;3093298;28;113849;-56
2021/01/01 10:40:12;;;;;;;;;;;;;;;22.46;33.68;100898.63;3076513;28;114243;-57
2021/01/01 10:41:56;;;;;;;;;;;;;;;22.41;33.40;100907.19;3091773;28;114686;-57
2021/01/01 10:43:47;;;;;;;;;;;;;;;22.44;33.87;100904.56;3101210;28;114696;-57
2021/01/01 10:45:18;;;;;;;;;;;;;;;22.46;33.86;100907.91;3088060;28;115229;-57
2021/01/01 10:46:52;;;;;;;;;;;;;;;22.50;33.69;100910.91;3093676;28;115038;-57
2021/01/01 10:48:45;;;;;;;;;;;;;;;22.53;33.85;100904.66;3096209;28;114402;-56
2021/01/01 10:50:33;;;;;;;;;;;;;;;22.57;33.62;100906.50;3096444;28;114752;-56
2021/01/01 10:52:07;;;;;;;;;;;;;;;22.60;33.73;100913.44;3090453;28;116385;-56
2021/01/01 10:53:52;;;;;;;;;;;;;;;22.61;33.67;100910.31;3098935;28;114719;-56
2021/01/01 10:55:41;;;;;;;;;;;;;;;22.63;33.81;100916.44;3100030;28;114636;-57
2021/01/01 10:57:29;;;;;;;;;;;;;;;22.67;33.72;100921.44;3091802;28;114346;-56
2021/01/01 10:59:01;;;;;;;;;;;;;;;22.70;33.67;100913.22;3098557;28;115792;-56
2021/01/01 11:00:32;;;;;;;;;;;;;;;22.72;33.62;100910.03;3101226;28;115970;-56
2021/01/01 11:02:04;;;;;;;;;;;;;;;22.73;33.70;100914.53;3100629;28;115859;-56
2021/01/01 11:03:35;;;;;;;;;;;;;;;22.75;33.61;100920.69;3096052;28;115264;-57
2021/01/01 11:05:07;;;;;;;;;;;;;;;22.76;33.79;100911.09;3100281;28;115184;-56
2021/01/01 11:06:39;;;;;;;;;;;;;;;22.78;33.79;100908.75;3100858;28;114878;-56
2021/01/01 11:08:11;;;;;;;;;;;;;;;22.80;33.62;100912.09;3101804;28;114686;-56
2021/01/01 11:09:42;;;;;;;;;;;;;;;22.81;33.71;100910.91;3101636;28;115707;-56
2021/01/01 11:11:19;;;;;;;;;;;;;;;22.83;33.51;100915.09;3101633;28;115953;-56
2021/01/01 11:12:54;;;;;;;;;;;;;;;22.86;33.85;100916.41;3104233;28;114414;-57
2021/01/01 12:24:48;;;;;;;;;;;;;;;23.21;33.45;100878.75;3100502;28;116129;-58
2021/01/01 12:26:20;;;;;;;;;;;;;;;23.20;33.79;100885.53;3097156;28;115609;-58
2021/01/01 12:28:08;;;;;;;;;;;;;;;23.19;33.51;100878.22;3093991;28;114840;-57
2021/01/01 12:29:42;;;;;;;;;;;;;;;23.17;33.37;100869.25;3097317;28;114863;-58
2021/01/01 12:31:14;;;;;;;;;;;;;;;23.14;32.90;100871.91;3099014;28;114252;-58
2021/01/01 12:32:46;;;;;;;;;;;;;;;23.12;33.06;100871.44;3099075;28;113952;-58
2021/01/01 12:34:17;;;;;;;;;;;;;;;23.09;33.06;100864.44;3095347;28;114178;-58
2021/01/01 12:35:50;;;;;;;;;;;;;;;23.07;32.79;100869.59;3099071;28;114321;-58
2021/01/01 12:37:23;;;;;;;;;;;;;;;23.05;32.63;100869.06;3095284;28;114100;-57
2021/01/01 12:38:54;;;;;;;;;;;;;;;23.02;32.50;100864.94;3097852;28;114321;-58
2021/01/01 12:40:26;;;;;;;;;;;;;;;23.03;32.71;100865.78;3099655;28;114350;-58
2021/01/01 12:41:57;;;;;;;;;;;;;;;23.03;32.98;100863.75;3099964;28;114006;-58
2021/01/01 12:43:32;;;;;;;;;;;;;;;23.03;32.73;100851.69;3096677;28;113949;-58
2021/01/01 12:45:05;;;;;;;;;;;;;;;23.04;32.81;100856.97;3098753;28;114047;-58
2021/01/01 12:46:36;;;;;;;;;;;;;;;23.05;32.80;100861.44;3097736;28;115070;-58
2021/01/01 12:48:08;;;;;;;;;;;;;;;23.05;32.71;100858.63;3098217;28;113901;-58
2021/01/01 12:49:39;;;;;;;;;;;;;;;23.05;32.76;100855.81;3096979;28;114526;-58
2021/01/01 12:51:11;;;;;;;;;;;;;;;23.06;32.67;100865.09;3098022;28;115219;-58
2021/01/01 12:52:52;;;;;;;;;;;;;;;23.05;32.68;100863.44;3101080;28;114241;-58
2021/01/01 12:54:23;;;;;;;;;;;;;;;23.00;32.39;100861.59;3094904;28;115898;-58
2021/01/01 12:55:54;;;;;;;;;;;;;;;23.01;32.43;100866.09;3097743;28;115068;-59
2021/01/01 12:57:26;;;;;;;;;;;;;;;22.99;32.62;100862.75;3097276;28;115121;-58
2021/01/01 12:58:57;;;;;;;;;;;;;;;22.99;32.48;100864.75;3095217;28;115524;-59
2021/01/01 13:00:28;;;;;;;;;;;;;;;22.97;32.44;100867.06;3094409;28;114439;-58
2021/01/01 13:02:00;;;;;;;;;;;;;;;22.96;32.31;100862.59;3096775;28;114138;-58
2021/01/01 13:03:31;;;;;;;;;;;;;;;22.94;32.36;100865.72;3095229;28;114521;-58
2021/01/01 13:05:02;;;;;;;;;;;;;;;22.93;32.44;100864.09;3095093;28;115132;-59
2021/01/01 13:06:34;;;;;;;;;;;;;;;22.91;32.38;100866.38;3095814;28;114009;-58
2021/01/01 13:08:06;;;;;;;;;;;;;;;22.89;32.42;100863.06;3095604;28;114219;-58
2021/01/01 13:09:37;;;;;;;;;;;;;;;22.80;32.02;100859.41;3090976;28;114674;-57
2021/01/01 13:11:08;;;;;;;;;;;;;;;22.75;32.15;100859.53;3090981;28;115309;-58
2021/01/01 13:12:40;;;;;;;;;;;;;;;22.68;31.67;100859.13;3088997;28;114332;-58
2021/01/01 13:14:12;;;;;;;;;;;;;;;22.62;31.89;100864.06;3104156;28;115788;-57
2021/01/01 13:15:43;;;;;;;;;;;;;;;22.57;31.94;100855.81;3097642;28;115089;-58
2021/01/01 13:17:14;;;;;;;;;;;;;;;22.49;31.90;100856.56;3097057;28;115218;-58
2021/01/01 13:18:46;;;;;;;;;;;;;;;22.48;32.09;100865.34;3091793;28;116997;-57
2021/01/01 13:20:17;;;;;;;;;;;;;;;22.41;31.69;100856.53;3089758;28;116170;-57
2021/01/01 13:21:48;;;;;;;;;;;;;;;22.36;31.78;100860.31;3091301;28;115914;-57
2021/01/01 13:23:19;;;;;;;;;;;;;;;22.34;31.51;100856.16;3090851;28;115888;-57
2021/01/01 13:24:59;;;;;;;;;;;;;;;22.29;31.72;100861.94;3094475;28;114772;-57
2021/01/01 13:26:36;;;;;;;;;;;;;;;22.25;31.37;100858.94;3094218;28;114607;-57
2021/01/01 13:28:07;;;;;;;;;;;;;;;22.23;31.65;100852.78;3091521;28;114199;-57
2021/01/01 13:29:38;;;;;;;;;;;;;;;22.21;31.60;100855.13;3085921;28;114604;-57
2021/01/01 13:31:22;;;;;;;;;;;;;;;22.20;31.66;100849.81;3088904;28;114782;-57
2021/01/01 13:32:55;;;;;;;;;;;;;;;22.20;31.47;100858.25;3098141;28;116030;-58
2021/01/01 13:34:28;;;;;;;;;;;;;;;22.19;31.31;100854.59;3096405;28;117336;-58
2021/01/01 13:36:02;;;;;;;;;;;;;;;22.20;31.62;100861.06;3099852;28;115979;-58
2021/01/01 13:37:34;;;;;;;;;;;;;;;22.18;31.62;100858.56;3099536;28;114691;-58
2021/01/01 13:39:05;;;;;;;;;;;;;;;22.19;31.51;100860.22;3097512;28;114044;-61
2021/01/01 13:40:36;;;;;;;;;;;;;;;22.18;31.26;100856.56;3094442;28;114652;-58
2021/01/01 13:42:10;;;;;;;;;;;;;;;22.21;31.31;100863.56;3098143;28;114209;-58
2021/01/01 13:43:41;;;;;;;;;;;;;;;22.21;31.49;100859.91;3098559;28;116423;-58
2021/01/01 13:45:13;;;;;;;;;;;;;;;22.22;31.18;100864.38;3098483;28;114310;-58
2021/01/01 13:46:45;;;;;;;;;;;;;;;22.22;31.19;100867.19;3098281;28;113871;-57
2021/01/01 13:48:16;;;;;;;;;;;;;;;22.21;31.48;100859.91;3095603;28;115118;-57
2021/01/01 13:49:47;;;;;;;;;;;;;;;22.22;31.13;100864.38;3095506;28;114052;-58
2021/01/01 13:51:34;;;;;;;;;;;;;;;22.21;31.09;100869.19;3092778;28;114075;-57
2021/01/01 13:53:06;;;;;;;;;;;;;;;22.22;31.13;100864.38;3096406;28;114314;-57
2021/01/01 13:54:37;;;;;;;;;;;;;;;22.24;31.08;100859.25;3089933;28;114258;-57
2021/01/01 13:56:08;;;;;;;;;;;;;;;22.24;31.03;100867.69;3093724;28;113855;-57
2021/01/01 13:57:40;;;;;;;;;;;;;;;22.24;31.27;100865.72;3099243;28;113846;-58
2021/01/01 13:59:11;;;;;;;;;;;;;;;22.24;31.16;100871.34;3094659;28;115023;-57
2021/01/01 14:00:44;;;;;;;;;;;;;;;22.24;30.88;100864.88;3095079;28;115261;-58
2021/01/01 14:02:15;;;;;;;;;;;;;;;22.24;30.94;100865.72;3094174;28;114271;-58
2021/01/01 14:03:47;;;;;;;;;;;;;;;22.23;31.06;100874.47;3102164;28;115163;-57
2021/01/01 14:05:18;;;;;;;;;;;;;;;22.21;30.87;100869.19;3099976;28;115151;-57
2021/01/01 14:06:51;;;;;;;;;;;;;;;22.20;31.07;100864.69;3094751;28;115274;-58
2021/01/01 14:08:23;;;;;;;;;;;;;;;22.19;30.74;100865.84;3095609;28;114278;-57
2021/01/01 14:09:54;;;;;;;;;;;;;;;22.17;30.89;100863.34;3095712;28;116504;-57
2021/01/01 14:11:25;;;;;;;;;;;;;;;22.15;31.07;100862.84;3094254;28;114958;-57
2021/01/01 14:12:56;;;;;;;;;;;;;;;22.15;31.15;100862.84;3099179;28;115556;-58
2021/01/01 14:14:30;;;;;;;;;;;;;;;22.15;30.95;100873.28;3099427;27;114247;-58
2021/01/01 14:16:02;;;;;;;;;;;;;;;22.15;30.97;100874.13;3090480;28;115236;-58
2021/01/01 14:17:34;;;;;;;;;;;;;;;22.16;31.01;100874.94;3095865;28;114517;-58
2021/01/01 14:19:05;;;;;;;;;;;;;;;22.16;31.18;100870.16;3092420;28;114917;-58
2021/01/01 14:20:36;;;;;;;;;;;;;;;22.17;31.22;100877.41;3095353;28;115442;-58
2021/01/01 14:22:08;;;;;;;;;;;;;;;22.16;30.96;100870.16;3094723;28;117765;-58
2021/01/01 14:23:39;;;;;;;;;;;;;;;22.16;30.98;100870.16;3093736;28;115978;-58
2021/01/01 14:25:11;;;;;;;;;;;;;;;22.16;31.12;100874.94;3093269;28;115710;-57
2021/01/01 14:26:43;;;;;;;;;;;;;;;22.14;30.74;100871.59;3092899;28;115872;-57
2021/01/01 14:28:14;;;;;;;;;;;;;;;22.14;31.15;100871.59;3093728;28;114888;-58
2021/01/01 14:29:45;;;;;;;;;;;;;;;22.12;30.87;100865.50;3093867;28;115831;-57
2021/01/01 14:31:17;;;;;;;;;;;;;;;22.11;30.86;100873.09;3096734;28;115197;-57
2021/01/01 14:32:49;;;;;;;;;;;;;;;22.10;30.82;100868.63;3098170;28;115102;-58
2021/01/01 14:34:20;;;;;;;;;;;;;;;22.11;30.99;100869.44;3093598;28;115173;-58
2021/01/01 14:35:58;;;;;;;;;;;;;;;22.11;31.23;100866.63;3098410;28;114667;-57
2021/01/01 14:37:29;;;;;;;;;;;;;;;21.61;29.27;100875.16;3098207;28;116151;-59
2021/01/01 14:39:01;;;;;;;;;;;;;;;21.36;30.46;100872.94;3094694;28;115818;-56
2021/01/01 14:40:33;;;;;;;;;;;;;;;21.49;30.76;100874.03;3091571;28;116160;-58
2021/01/01 14:42:06;;;;;;;;;;;;;;;21.62;30.58;100876.78;3100877;28;116064;-56
2021/01/01 14:43:37;;;;;;;;;;;;;;;21.74;30.65;100879.91;3092793;28;113720;-58
2021/01/01 14:45:08;;;;;;;;;;;;;;;21.83;30.66;100870.69;3090515;28;114111;-56
2021/01/01 14:46:39;;;;;;;;;;;;;;;21.86;31.10;100873.69;3096723;28;114173;-56
2021/01/01 14:48:11;;;;;;;;;;;;;;;21.94;30.95;100874.97;3089352;28;114065;-57
2021/01/01 14:49:43;;;;;;;;;;;;;;;22.00;31.07;100876.47;3092786;28;114293;-56
2021/01/01 14:51:14;;;;;;;;;;;;;;;22.03;31.07;100875.84;3093251;28;114068;-57
2021/01/01 14:52:45;;;;;;;;;;;;;;;22.05;31.16;100876.34;3094945;28;114330;-57
2021/01/01 14:54:21;;;;;;;;;;;;;;;22.07;31.10;100876.88;3096302;28;114234;-57
2021/01/01 14:55:52;;;;;;;;;;;;;;;22.09;31.02;100878.19;3096719;28;114019;-57
2021/01/01 14:57:24;;;;;;;;;;;;;;;22.10;31.36;100868.63;3095118;28;116229;-57
2021/01/01 14:58:55;;;;;;;;;;;;;;;22.12;31.35;100883.19;3095838;28;114933;-57
2021/01/01 15:00:28;;;;;;;;;;;;;;;22.12;31.31;100883.19;3097661;28;113839;-57
2021/01/01 15:01:59;;;;;;;;;;;;;;;22.13;31.41;100884.84;3094634;28;114160;-57
2021/01/01 15:03:32;;;;;;;;;;;;;;;22.14;31.59;100875.25;3091442;28;114491;-57
2021/01/01 15:05:09;;;;;;;;;;;;;;;22.14;31.62;100886.50;3091075;28;114930;-57
2021/01/01 15:06:41;;;;;;;;;;;;;;;22.16;31.49;100889.03;3088387;28;115094;-57
2021/01/01 15:08:12;;;;;;;;;;;;;;;22.17;31.49;100885.88;3090824;28;115097;-57
2021/01/01 15:09:44;;;;;;;;;;;;;;;22.20;31.62;100883.56;3093199;28;114246;-57
2021/01/01 15:11:16;;;;;;;;;;;;;;;22.24;31.56;100881.78;3095925;28;114769;-57
2021/01/01 15:12:47;;;;;;;;;;;;;;;22.25;31.47;100881.47;3096506;28;114429;-57
2021/01/01 15:14:18;;;;;;;;;;;;;;;22.29;31.44;100890.09;3091996;28;115062;-57
2021/01/01 15:15:51;;;;;;;;;;;;;;;22.31;31.41;100884.94;3098499;28;114213;-57
2021/01/01 15:17:22;;;;;;;;;;;;;;;22.34;31.64;100892.78;3096674;28;115006;-58
2021/01/01 15:18:53;;;;;;;;;;;;;;;22.37;31.43;100894.94;3094395;28;114633;-57
2021/01/01 15:20:24;;;;;;;;;;;;;;;22.38;31.69;100891.81;3097881;28;115200;-57
2021/01/01 15:21:55;;;;;;;;;;;;;;;22.41;31.57;100890.31;3097834;28;115053;-57
2021/01/01 15:23:28;;;;;;;;;;;;;;;22.44;31.52;100895.31;3099150;28;115218;-58
2021/01/01 15:24:59;;;;;;;;;;;;;;;22.44;31.65;100898.94;3101935;28;114562;-57
2021/01/01 15:26:31;;;;;;;;;;;;;;;22.46;31.67;100893.00;3098283;28;114382;-57
2021/01/01 15:28:02;;;;;;;;;;;;;;;22.47;31.46;100892.69;3099016;28;114742;-57
2021/01/01 15:29:33;;;;;;;;;;;;;;;22.47;31.62;100901.13;3097971;28;114930;-57
2021/01/01 15:31:05;;;;;;;;;;;;;;;22.48;31.63;100904.78;3098432;28;115854;-57
2021/01/01 15:32:37;;;;;;;;;;;;;;;22.48;31.55;100899.97;3096188;28;114371;-57
2021/01/01 15:34:08;;;;;;;;;;;;;;;22.48;31.73;100899.16;3094634;28;115297;-57
2021/01/01 15:35:39;;;;;;;;;;;;;;;22.47;31.73;100906.75;3098028;28;114716;-57
2021/01/01 15:37:11;;;;;;;;;;;;;;;22.49;31.94;100904.44;3091372;28;115914;-57
2021/01/01 15:38:42;;;;;;;;;;;;;;;22.50;31.67;100906.09;3091591;28;115750;-57
2021/01/01 15:40:14;;;;;;;;;;;;;;;22.52;31.74;100905.78;3097531;28;115894;-57
2021/01/01 15:41:46;;;;;;;;;;;;;;;22.53;31.86;100899.81;3098881;28;114969;-58
2021/01/01 15:43:17;;;;;;;;;;;;;;;22.56;31.79;100904.81;3100339;28;115260;-58
2021/01/01 15:44:48;;;;;;;;;;;;;;;22.58;31.75;100908.13;3089155;28;115745;-57
2021/01/01 15:46:21;;;;;;;;;;;;;;;22.59;31.74;100909.78;3104258;28;116450;-57
2021/01/01 15:47:52;;;;;;;;;;;;;;;22.62;31.95;100908.34;3097105;28;114271;-57
2021/01/01 15:49:23;;;;;;;;;;;;;;;22.63;31.91;100902.34;3095208;28;114417;-57
2021/01/01 15:50:55;;;;;;;;;;;;;;;22.65;32.01;100913.31;3097540;28;114496;-57
2021/01/01 15:52:26;;;;;;;;;;;;;;;22.65;31.83;100910.50;3093570;28;114143;-57
2021/01/01 15:53:57;;;;;;;;;;;;;;;22.65;32.09;100913.31;3091349;28;114206;-57